Time;durP1;ratioP1;P1;durP2;ratioP2;P2;SDS_P1;SDS_P2;PMS_P1;PMS_P2;Temp;Humidity;BMP_temperature;BMP_pressure;BME280_temperature;BME280_humidity;BME280_pressure;Samples;Min_cycle;Max_cycle;Signal;HPM_P1;HPM_P2
2022/04/11 00:01:17;;;;;;;;;;;;;;;-0.43;76.27;100537.65;84854;1327;22584;-81
2022/04/11 00:03:26;;;;;;;;;;;;;;;-0.42;76.49;100542.45;84854;1322;22627;-80
2022/04/11 00:05:34;;;;;;;;;;;;;;;-0.42;76.37;100544.16;84881;1324;23942;-79
2022/04/11 00:07:46;;;;;;;;;;;;;;;-0.43;76.53;100548.80;84858;1324;22555;-80
2022/04/11 00:09:57;;;;;;;;;;;;;;;-0.43;76.42;100550.16;84892;1324;22793;-80
2022/04/11 00:12:10;;;;;;;;;;;;;;;-0.43;76.60;100548.79;84802;1326;22799;-80
2022/04/11 00:14:19;;;;;;;;;;;;;;;-0.43;76.54;100547.59;84883;1324;22759;-81
2022/04/11 00:16:26;;;;;;;;;;;;;;;-0.44;76.66;100552.39;84852;1324;22664;-80
2022/04/11 00:18:38;;;;;;;;;;;;;;;-0.43;76.71;100550.15;84863;1324;24087;-80
2022/04/11 00:20:50;;;;;;;;;;;;;;;-0.43;76.93;100557.02;84853;1325;22563;-79
2022/04/11 00:22:57;;;;;;;;;;;;;;;-0.42;76.98;100558.22;84855;1327;22568;-79
2022/04/11 00:25:10;;;;;;;;;;;;;;;-0.37;77.13;100564.61;84726;1330;22588;-79
2022/04/11 00:27:17;;;;;;;;;;;;;;;-0.32;77.15;100560.55;84892;1324;22589;-80
2022/04/11 00:29:25;;;;;;;;;;;;;;;-0.25;77.42;100564.55;84866;1324;25417;-80
2022/04/11 00:31:33;;;;;;;;;;;;;;;-0.17;77.27;100561.70;84883;1324;22572;-81
2022/04/11 00:33:40;;;;;;;;;;;;;;;-0.11;77.42;100562.27;84842;1328;22630;-80
2022/04/11 00:35:51;;;;;;;;;;;;;;;-0.03;77.50;100564.23;84864;1325;22632;-81
2022/04/11 00:37:58;;;;;;;;;;;;;;;0.04;77.24;100566.69;84858;1324;22584;-81
2022/04/11 00:40:11;;;;;;;;;;;;;;;0.11;77.64;100562.79;84860;1324;22574;-82
2022/04/11 00:42:21;;;;;;;;;;;;;;;0.17;77.67;100561.63;84907;1324;22589;-80
2022/04/11 00:44:32;;;;;;;;;;;;;;;0.23;77.41;100566.83;84899;1328;22629;-80
2022/04/11 00:46:42;;;;;;;;;;;;;;;0.29;77.43;100567.21;84874;1325;22724;-80
2022/04/11 00:48:52;;;;;;;;;;;;;;;0.33;77.35;100563.64;84870;1324;22553;-80
2022/04/11 00:51:05;;;;;;;;;;;;;;;0.38;77.39;100568.48;84863;1324;22559;-80
2022/04/11 00:53:16;;;;;;;;;;;;;;;0.42;77.21;100568.33;84875;1324;24388;-80
2022/04/11 00:55:26;;;;;;;;;;;;;;;0.43;77.08;100568.50;84864;1324;22570;-80
2022/04/11 00:57:34;;;;;;;;;;;;;;;0.44;77.04;100570.74;84770;1327;22834;-79
2022/04/11 00:59:41;;;;;;;;;;;;;;;0.45;76.79;100574.18;84834;1324;25669;-79
2022/04/11 01:01:49;;;;;;;;;;;;;;;0.44;76.64;100577.09;84874;1325;25903;-80
2022/04/11 01:03:56;;;;;;;;;;;;;;;0.43;76.67;100573.13;84778;1327;22873;-80
2022/04/11 01:06:06;;;;;;;;;;;;;;;0.43;76.59;100573.82;84867;1324;22579;-80
2022/04/11 01:08:14;;;;;;;;;;;;;;;0.41;76.53;100577.59;84772;1327;25411;-79
2022/04/11 01:10:24;;;;;;;;;;;;;;;0.40;76.53;100580.49;84819;1326;22762;-79
2022/04/11 01:12:32;;;;;;;;;;;;;;;0.36;76.74;100577.22;84872;1325;24371;-81
2022/04/11 01:14:43;;;;;;;;;;;;;;;0.34;76.63;100582.34;84867;1325;22901;-81
2022/04/11 01:16:53;;;;;;;;;;;;;;;0.31;76.71;100584.55;84891;1324;22593;-81
2022/04/11 01:19:01;;;;;;;;;;;;;;;0.27;76.57;100585.04;84860;1326;25305;-80
2022/04/11 01:21:10;;;;;;;;;;;;;;;0.23;76.66;100585.70;84890;1325;22602;-80
2022/04/11 01:23:17;;;;;;;;;;;;;;;0.19;77.02;100584.98;84863;1325;22551;-80
2022/04/11 01:25:27;;;;;;;;;;;;;;;0.15;76.85;100590.62;84853;1323;22586;-80
2022/04/11 01:27:35;;;;;;;;;;;;;;;0.12;76.72;100590.59;84161;1324;1003094;-81
2022/04/11 01:29:42;;;;;;;;;;;;;;;0.08;76.72;100594.15;84873;1324;24269;-80
2022/04/11 01:31:52;;;;;;;;;;;;;;;0.05;77.10;100597.05;84872;1324;22587;-80
2022/04/11 01:33:59;;;;;;;;;;;;;;;0.02;76.97;100599.08;84857;1325;22709;-80
2022/04/11 01:36:07;;;;;;;;;;;;;;;-0.03;77.07;100597.16;84851;1324;22651;-80
2022/04/11 01:38:18;;;;;;;;;;;;;;;-0.06;77.12;100600.20;84879;1324;23232;-81
2022/04/11 01:40:25;;;;;;;;;;;;;;;-0.09;77.20;100598.65;84907;1324;24282;-80
2022/04/11 01:42:57;;;;;;;;;;;;;;;-0.13;77.17;100603.05;84844;1330;22553;-81
2022/04/11 01:45:10;;;;;;;;;;;;;;;-0.18;77.13;100602.16;84789;1327;22666;-78
2022/04/11 01:47:18;;;;;;;;;;;;;;;-0.23;77.49;100604.69;84897;1327;22567;-81
2022/04/11 01:49:28;;;;;;;;;;;;;;;-0.25;77.53;100603.80;84904;1327;22583;-81
2022/04/11 01:51:39;;;;;;;;;;;;;;;-0.28;77.62;100606.18;84822;1326;22659;-79
2022/04/11 01:53:52;;;;;;;;;;;;;;;-0.30;77.83;100607.86;84182;1323;1003479;-80
2022/04/11 01:55:59;;;;;;;;;;;;;;;-0.32;77.96;100610.25;84887;1324;22849;-80
2022/04/11 01:58:07;;;;;;;;;;;;;;;-0.35;78.05;100612.11;84773;1326;22557;-80
2022/04/11 02:00:17;;;;;;;;;;;;;;;-0.37;78.05;100611.40;84868;1325;24236;-82
2022/04/11 02:02:25;;;;;;;;;;;;;;;-0.38;77.98;100613.96;84874;1324;22560;-79
2022/04/11 02:04:33;;;;;;;;;;;;;;;-0.40;78.25;100615.13;84843;1324;22559;-79
2022/04/11 02:06:44;;;;;;;;;;;;;;;-0.41;78.46;100619.92;84775;1322;23225;-80
2022/04/11 02:08:52;;;;;;;;;;;;;;;-0.41;78.35;100617.88;84758;1324;22704;-82
2022/04/11 02:11:03;;;;;;;;;;;;;;;-0.40;78.69;100622.67;84901;1326;22571;-79
2022/04/11 02:13:11;;;;;;;;;;;;;;;-0.39;78.66;100620.48;84863;1324;22927;-80
2022/04/11 02:15:22;;;;;;;;;;;;;;;-0.35;78.84;100625.47;84776;1330;23783;-79
2022/04/11 02:17:32;;;;;;;;;;;;;;;-0.31;79.00;100628.43;84888;1327;25431;-79
2022/04/11 02:19:53;;;;;;;;;;;;;;;-0.26;79.24;100626.59;84784;1326;25422;-79
2022/04/11 02:22:00;;;;;;;;;;;;;;;-0.19;78.94;100627.17;84724;1328;24070;-79
2022/04/11 02:24:09;;;;;;;;;;;;;;;-0.15;78.98;100626.19;84783;1327;22566;-79
2022/04/11 02:26:19;;;;;;;;;;;;;;;-0.08;79.05;100626.77;84852;1326;22625;-80
2022/04/11 02:28:26;;;;;;;;;;;;;;;-0.02;79.03;100628.38;84805;1327;22557;-79
2022/04/11 02:30:33;;;;;;;;;;;;;;;0.04;79.10;100630.65;84750;1329;24071;-80
2022/04/11 02:32:44;;;;;;;;;;;;;;;0.10;79.27;100625.73;84821;1326;22563;-80
2022/04/11 02:34:51;;;;;;;;;;;;;;;0.15;79.06;100629.90;84807;1327;22632;-80
2022/04/11 02:37:01;;;;;;;;;;;;;;;0.20;78.99;100627.52;84851;1326;22566;-80
2022/04/11 02:39:09;;;;;;;;;;;;;;;0.24;78.69;100628.59;84714;1331;22700;-80
2022/04/11 02:41:17;;;;;;;;;;;;;;;0.28;78.61;100627.42;84797;1327;22593;-80
2022/04/11 02:43:28;;;;;;;;;;;;;;;0.29;78.37;100633.77;84817;1327;22573;-80
2022/04/11 02:45:35;;;;;;;;;;;;;;;0.30;78.36;100631.58;84843;1327;25447;-80
2022/04/11 02:47:45;;;;;;;;;;;;;;;0.29;78.23;100631.04;84795;1328;24250;-79
2022/04/11 02:49:52;;;;;;;;;;;;;;;0.27;78.26;100631.71;84829;1327;22557;-81
2022/04/11 02:52:00;;;;;;;;;;;;;;;0.23;78.13;100633.23;84828;1327;24045;-82
2022/04/11 02:54:10;;;;;;;;;;;;;;;0.18;78.03;100630.60;84825;1327;22553;-82
2022/04/11 02:56:20;;;;;;;;;;;;;;;0.14;77.72;100633.15;84827;1321;22651;-82
2022/04/11 02:58:28;;;;;;;;;;;;;;;0.08;77.89;100631.38;84807;1327;22592;-82
2022/04/11 03:00:35;;;;;;;;;;;;;;;0.01;77.65;100633.71;84848;1327;22635;-80
2022/04/11 03:02:42;;;;;;;;;;;;;;;-0.07;77.67;100634.85;84818;1328;22564;-80
2022/04/11 03:04:50;;;;;;;;;;;;;;;-0.14;77.72;100636.49;84824;1326;22796;-80
2022/04/11 03:06:57;;;;;;;;;;;;;;;-0.21;77.76;100637.27;84784;1327;22576;-79
2022/04/11 03:09:05;;;;;;;;;;;;;;;-0.28;77.90;100635.33;84811;1327;22627;-80
2022/04/11 03:11:16;;;;;;;;;;;;;;;-0.34;77.94;100637.14;84698;1328;22587;-83
2022/04/11 03:13:23;;;;;;;;;;;;;;;-0.40;78.16;100642.05;84826;1328;26471;-82
2022/04/11 03:15:34;;;;;;;;;;;;;;;-0.46;78.00;100645.41;84843;1328;22897;-79
2022/04/11 03:17:41;;;;;;;;;;;;;;;-0.53;78.28;100646.38;84815;1326;24290;-80
2022/04/11 03:19:52;;;;;;;;;;;;;;;-0.57;78.36;100649.40;84777;1325;22593;-79
2022/04/11 03:21:59;;;;;;;;;;;;;;;-0.63;78.41;100649.16;84830;1326;22804;-82
2022/04/11 03:24:10;;;;;;;;;;;;;;;-0.68;78.50;100649.27;84727;1330;24370;-82
2022/04/11 03:26:20;;;;;;;;;;;;;;;-0.74;78.63;100648.50;84114;1328;1003800;-83
2022/04/11 03:28:30;;;;;;;;;;;;;;;-0.80;78.74;100649.64;84846;1326;22592;-83
2022/04/11 03:30:37;;;;;;;;;;;;;;;-0.84;78.76;100653.86;84834;1327;22599;-79
2022/04/11 03:32:47;;;;;;;;;;;;;;;-0.88;78.70;100655.02;84830;1329;22628;-80
2022/04/11 03:34:54;;;;;;;;;;;;;;;-0.92;79.04;100653.94;84822;1328;22596;-80
2022/04/11 03:37:02;;;;;;;;;;;;;;;-0.95;79.12;100654.74;84825;1327;22577;-84
2022/04/11 03:39:09;;;;;;;;;;;;;;;-0.97;79.46;100654.89;84810;1328;22605;-83
2022/04/11 03:41:17;;;;;;;;;;;;;;;-0.99;79.16;100658.11;84117;1327;1003082;-79
2022/04/11 03:43:24;;;;;;;;;;;;;;;-1.00;79.54;100654.67;84846;1321;22576;-81
2022/04/11 03:45:32;;;;;;;;;;;;;;;-1.01;79.52;100653.47;84804;1327;22802;-80
2022/04/11 03:47:43;;;;;;;;;;;;;;;-1.00;79.62;100659.98;84841;1327;22696;-80
2022/04/11 03:49:50;;;;;;;;;;;;;;;-1.00;79.89;100661.87;84808;1329;24134;-79
2022/04/11 03:52:02;;;;;;;;;;;;;;;-0.98;79.91;100663.79;84831;1328;22582;-82
2022/04/11 03:54:10;;;;;;;;;;;;;;;-0.97;80.11;100662.60;84727;1330;26484;-83
2022/04/11 03:56:17;;;;;;;;;;;;;;;-0.95;80.14;100668.78;84832;1325;22917;-82
2022/04/11 03:58:24;;;;;;;;;;;;;;;-0.93;80.25;100666.23;84833;1326;22553;-82
2022/04/11 04:00:31;;;;;;;;;;;;;;;-0.92;80.16;100663.54;84799;1327;22881;-84
2022/04/11 04:02:39;;;;;;;;;;;;;;;-0.89;80.45;100664.42;84728;1332;22580;-83
2022/04/11 04:04:46;;;;;;;;;;;;;;;-0.86;80.46;100665.83;84819;1327;22617;-83
2022/04/11 04:06:56;;;;;;;;;;;;;;;-0.83;80.37;100670.84;84864;1327;22573;-83
2022/04/11 04:09:03;;;;;;;;;;;;;;;-0.81;80.45;100671.20;84097;1331;820581;-80
2022/04/11 04:11:14;;;;;;;;;;;;;;;-0.76;80.63;100678.11;84843;1326;22576;-83
2022/04/11 04:13:21;;;;;;;;;;;;;;;-0.73;80.36;100679.36;84830;1328;22706;-81
2022/04/11 04:15:32;;;;;;;;;;;;;;;-0.69;80.64;100684.03;84857;1327;22550;-80
2022/04/11 04:17:39;;;;;;;;;;;;;;;-0.65;80.36;100680.47;84821;1329;22734;-80
2022/04/11 04:19:50;;;;;;;;;;;;;;;-0.62;80.49;100675.90;84115;1329;1003612;-79
2022/04/11 04:22:00;;;;;;;;;;;;;;;-0.56;80.69;100678.38;84857;1327;22859;-80
2022/04/11 04:24:08;;;;;;;;;;;;;;;-0.47;80.68;100678.65;84821;1327;22789;-79
2022/04/11 04:26:18;;;;;;;;;;;;;;;-0.37;80.75;100682.36;84829;1328;24303;-83
2022/04/11 04:28:29;;;;;;;;;;;;;;;-0.27;80.82;100686.94;84787;1326;22574;-84
2022/04/11 04:30:39;;;;;;;;;;;;;;;-0.15;80.65;100689.64;84848;1322;22547;-83
2022/04/11 04:32:50;;;;;;;;;;;;;;;0.06;81.06;100689.00;84822;1326;22792;-84
2022/04/11 04:34:57;;;;;;;;;;;;;;;0.22;80.99;100688.29;84816;1327;24320;-82
2022/04/11 04:37:06;;;;;;;;;;;;;;;0.50;81.02;100691.27;84788;1331;24357;-83
2022/04/11 04:39:13;;;;;;;;;;;;;;;0.85;80.92;100694.27;84830;1322;22713;-83
2022/04/11 04:41:23;;;;;;;;;;;;;;;1.32;80.94;100693.16;84854;1327;22695;-83
2022/04/11 04:43:31;;;;;;;;;;;;;;;2.01;81.52;100691.17;84829;1325;24010;-79
2022/04/11 04:45:39;;;;;;;;;;;;;;;2.77;82.07;100689.31;84835;1326;22566;-80
2022/04/11 04:47:48;;;;;;;;;;;;;;;3.44;81.24;100685.70;84817;1323;23165;-81
2022/04/11 04:49:56;;;;;;;;;;;;;;;4.06;80.15;100685.39;84798;1325;22569;-78
2022/04/11 04:52:08;;;;;;;;;;;;;;;4.18;77.14;100686.86;84755;1327;25434;-80
2022/04/11 04:54:15;;;;;;;;;;;;;;;4.02;75.50;100684.05;84726;1326;25532;-78
2022/04/11 04:56:22;;;;;;;;;;;;;;;3.85;74.52;100688.62;84746;1327;22576;-77
2022/04/11 04:58:30;;;;;;;;;;;;;;;3.73;74.49;100687.30;84760;1327;25283;-76
2022/04/11 05:00:37;;;;;;;;;;;;;;;3.73;74.36;100687.98;84662;1329;22552;-77
2022/04/11 05:02:47;;;;;;;;;;;;;;;3.74;73.93;100692.13;84778;1327;22554;-80
2022/04/11 05:04:55;;;;;;;;;;;;;;;3.82;74.40;100695.72;84784;1327;24295;-79
2022/04/11 05:07:02;;;;;;;;;;;;;;;3.96;74.11;100697.89;84780;1330;24272;-80
2022/04/11 05:09:12;;;;;;;;;;;;;;;3.86;73.24;100697.77;84785;1327;24233;-76
2022/04/11 05:11:20;;;;;;;;;;;;;;;3.67;72.71;100691.47;84783;1330;25011;-81
2022/04/11 05:13:28;;;;;;;;;;;;;;;3.46;72.49;100696.73;84755;1327;22557;-82
2022/04/11 05:15:35;;;;;;;;;;;;;;;3.28;72.61;100700.59;84782;1326;22553;-80
2022/04/11 05:17:45;;;;;;;;;;;;;;;3.19;72.73;100701.64;84764;1330;25434;-78
2022/04/11 05:19:56;;;;;;;;;;;;;;;3.13;73.00;100704.08;84770;1328;22741;-78
2022/04/11 05:22:03;;;;;;;;;;;;;;;3.09;73.41;100706.85;84716;1326;22568;-81
2022/04/11 05:24:14;;;;;;;;;;;;;;;3.31;75.01;100709.89;84713;1329;22610;-81
2022/04/11 05:26:24;;;;;;;;;;;;;;;4.23;76.76;100708.40;84704;1330;22586;-79
2022/04/11 05:28:32;;;;;;;;;;;;;;;4.62;74.60;100706.39;84770;1330;25306;-80
2022/04/11 05:30:42;;;;;;;;;;;;;;;4.67;72.93;100707.57;84722;1332;23018;-79
2022/04/11 05:32:49;;;;;;;;;;;;;;;4.59;72.19;100701.76;84813;1328;22573;-77
2022/04/11 05:35:00;;;;;;;;;;;;;;;4.51;71.67;100706.84;84785;1326;22558;-80
2022/04/11 05:37:07;;;;;;;;;;;;;;;4.41;71.28;100706.05;84775;1330;22560;-83
2022/04/11 05:39:17;;;;;;;;;;;;;;;4.36;71.40;100711.44;84757;1328;24333;-82
2022/04/11 05:41:24;;;;;;;;;;;;;;;4.31;71.35;100710.42;84775;1327;22561;-82
2022/04/11 05:43:32;;;;;;;;;;;;;;;4.25;71.36;100719.45;84763;1327;22593;-82
2022/04/11 05:45:39;;;;;;;;;;;;;;;4.20;71.27;100718.80;84801;1326;22859;-78
2022/04/11 05:47:49;;;;;;;;;;;;;;;4.15;71.42;100720.73;84746;1328;23942;-77
2022/04/11 05:49:56;;;;;;;;;;;;;;;4.25;71.88;100722.56;84782;1330;22564;-78
2022/04/11 05:52:09;;;;;;;;;;;;;;;4.42;72.35;100719.67;84742;1327;22570;-80
2022/04/11 05:54:16;;;;;;;;;;;;;;;4.64;72.37;100719.86;84786;1324;22666;-82
2022/04/11 05:56:23;;;;;;;;;;;;;;;4.83;72.09;100722.13;84796;1330;22570;-77
2022/04/11 05:58:30;;;;;;;;;;;;;;;4.90;70.94;100726.04;84779;1328;25454;-79
2022/04/11 06:00:40;;;;;;;;;;;;;;;4.74;70.67;100729.29;84806;1329;22687;-80
2022/04/11 06:02:48;;;;;;;;;;;;;;;4.61;70.60;100727.65;84703;1330;22557;-77
2022/04/11 06:04:55;;;;;;;;;;;;;;;4.51;70.45;100729.98;84066;1327;1003041;-78
2022/04/11 06:07:03;;;;;;;;;;;;;;;4.46;70.67;100729.69;84709;1331;22567;-76
2022/04/11 06:09:10;;;;;;;;;;;;;;;4.43;71.05;100729.00;84695;1330;22585;-80
2022/04/11 06:11:18;;;;;;;;;;;;;;;4.42;71.15;100731.77;84767;1331;22677;-80
2022/04/11 06:13:25;;;;;;;;;;;;;;;4.44;71.48;100732.11;84703;1329;22593;-78
2022/04/11 06:15:32;;;;;;;;;;;;;;;4.51;71.93;100733.96;84791;1329;25250;-79
2022/04/11 06:17:43;;;;;;;;;;;;;;;4.65;72.01;100734.02;84745;1327;23018;-78
2022/04/11 06:19:51;;;;;;;;;;;;;;;4.77;72.13;100739.98;84776;1330;22581;-80
2022/04/11 06:22:01;;;;;;;;;;;;;;;4.88;72.00;100742.47;84772;1327;25616;-79
2022/04/11 06:24:12;;;;;;;;;;;;;;;5.01;71.87;100744.42;84770;1324;22611;-75
2022/04/11 06:26:22;;;;;;;;;;;;;;;5.16;72.19;100743.94;84783;1327;25449;-78
2022/04/11 06:28:30;;;;;;;;;;;;;;;5.45;72.58;100742.94;84783;1329;22557;-80
2022/04/11 06:30:37;;;;;;;;;;;;;;;5.75;72.23;100740.69;84797;1330;22647;-78
2022/04/11 06:32:45;;;;;;;;;;;;;;;5.95;71.30;100736.30;84772;1327;22567;-78
2022/04/11 06:34:53;;;;;;;;;;;;;;;6.01;70.52;100739.35;84692;1332;23936;-74
2022/04/11 06:37:01;;;;;;;;;;;;;;;6.04;69.87;100738.98;84765;1328;22844;-80
2022/04/11 06:39:08;;;;;;;;;;;;;;;6.05;69.24;100741.89;84756;1327;24255;-78
2022/04/11 06:41:16;;;;;;;;;;;;;;;6.02;69.11;100745.23;84766;1330;22603;-80
2022/04/11 06:43:24;;;;;;;;;;;;;;;6.07;69.37;100747.41;84752;1327;24121;-77
2022/04/11 06:45:35;;;;;;;;;;;;;;;6.13;69.15;100750.29;84775;1327;23986;-77
2022/04/11 06:47:48;;;;;;;;;;;;;;;6.17;68.95;100747.61;84750;1330;22824;-77
2022/04/11 06:50:00;;;;;;;;;;;;;;;6.25;68.52;100752.88;84683;1329;22666;-77
2022/04/11 06:52:09;;;;;;;;;;;;;;;6.24;68.39;100756.18;84771;1330;25633;-79
2022/04/11 06:54:17;;;;;;;;;;;;;;;6.26;68.47;100753.73;84792;1327;22597;-78
2022/04/11 06:56:26;;;;;;;;;;;;;;;6.32;68.95;100757.97;84749;1328;22764;-76
2022/04/11 06:58:36;;;;;;;;;;;;;;;6.52;68.96;100755.77;84774;1327;25214;-77
2022/04/11 07:00:47;;;;;;;;;;;;;;;6.68;68.37;100754.48;84745;1330;23819;-78
2022/04/11 07:02:57;;;;;;;;;;;;;;;6.82;68.12;100753.23;84797;1330;24241;-77
2022/04/11 07:05:06;;;;;;;;;;;;;;;6.90;67.77;100758.47;84771;1327;25227;-77
2022/04/11 07:07:16;;;;;;;;;;;;;;;6.89;67.32;100762.48;84789;1326;22779;-77
2022/04/11 07:09:27;;;;;;;;;;;;;;;6.89;67.15;100760.21;84740;1330;22598;-75
2022/04/11 07:11:38;;;;;;;;;;;;;;;6.93;67.15;100762.23;84798;1328;22633;-79
2022/04/11 07:13:46;;;;;;;;;;;;;;;6.95;66.47;100765.65;84764;1330;22934;-79
2022/04/11 07:15:53;;;;;;;;;;;;;;;6.96;65.83;100766.17;84793;1327;22733;-78
2022/04/11 07:18:01;;;;;;;;;;;;;;;6.93;65.68;100765.00;84772;1327;22579;-78
2022/04/11 07:20:14;;;;;;;;;;;;;;;6.93;65.84;100765.69;84764;1330;23980;-77
2022/04/11 07:22:24;;;;;;;;;;;;;;;6.97;65.85;100768.40;84746;1329;22593;-78
2022/04/11 07:24:32;;;;;;;;;;;;;;;7.04;65.59;100767.77;84763;1323;22586;-80
2022/04/11 07:26:40;;;;;;;;;;;;;;;7.11;65.22;100772.67;84758;1327;22553;-78
2022/04/11 07:28:51;;;;;;;;;;;;;;;7.18;65.43;100772.72;84788;1327;23035;-80
2022/04/11 07:31:01;;;;;;;;;;;;;;;7.29;65.47;100769.75;84783;1327;22591;-78
2022/04/11 07:33:09;;;;;;;;;;;;;;;7.51;65.51;100767.27;84779;1327;24192;-77
2022/04/11 07:35:16;;;;;;;;;;;;;;;7.77;65.18;100768.48;84762;1326;22566;-75
2022/04/11 07:37:32;;;;;;;;;;;;;;;8.01;64.54;100770.25;84791;1327;22807;-76
2022/04/11 07:39:39;;;;;;;;;;;;;;;8.36;64.99;100771.25;84771;1327;22845;-77
2022/04/11 07:41:49;;;;;;;;;;;;;;;8.96;65.93;100769.13;84715;1332;24910;-78
2022/04/11 07:43:58;;;;;;;;;;;;;;;10.23;65.97;100763.88;84771;1327;23214;-82
2022/04/11 07:46:10;;;;;;;;;;;;;;;11.21;62.28;100763.36;84749;1327;22889;-78
2022/04/11 07:48:18;;;;;;;;;;;;;;;12.33;60.66;100759.13;84748;1327;25423;-78
2022/04/11 07:50:28;;;;;;;;;;;;;;;13.43;56.50;100755.97;84792;1328;22708;-78
2022/04/11 07:52:39;;;;;;;;;;;;;;;14.19;53.42;100753.64;84679;1330;23821;-75
2022/04/11 07:54:53;;;;;;;;;;;;;;;14.99;52.17;100753.44;84780;1325;22580;-78
2022/04/11 07:57:05;;;;;;;;;;;;;;;15.99;50.66;100748.05;84757;1327;22565;-74
2022/04/11 07:59:13;;;;;;;;;;;;;;;17.06;48.36;100753.11;84717;1330;22574;-76
2022/04/11 08:01:25;;;;;;;;;;;;;;;17.73;46.31;100751.02;84791;1327;22611;-75
2022/04/11 08:03:33;;;;;;;;;;;;;;;17.57;43.55;100755.73;84793;1327;22844;-78
2022/04/11 08:05:44;;;;;;;;;;;;;;;16.91;42.57;100760.33;84779;1330;22671;-80
2022/04/11 08:07:52;;;;;;;;;;;;;;;16.07;42.93;100758.69;84753;1327;24237;-79
2022/04/11 08:09:59;;;;;;;;;;;;;;;15.28;43.89;100762.84;84772;1330;22825;-79
2022/04/11 08:12:11;;;;;;;;;;;;;;;14.71;44.41;100770.09;84769;1330;24266;-75
2022/04/11 08:14:19;;;;;;;;;;;;;;;14.21;44.97;100769.83;84796;1329;22560;-75
2022/04/11 08:16:29;;;;;;;;;;;;;;;13.89;46.13;100776.05;84759;1324;22738;-75
2022/04/11 08:18:36;;;;;;;;;;;;;;;14.15;46.95;100775.02;84766;1328;22553;-77
2022/04/11 08:20:45;;;;;;;;;;;;;;;15.10;46.87;100775.59;84771;1327;22613;-78
2022/04/11 08:22:55;;;;;;;;;;;;;;;15.84;45.29;100774.55;84730;1327;22876;-76
2022/04/11 08:25:02;;;;;;;;;;;;;;;16.48;43.49;100773.70;84752;1327;24287;-77
2022/04/11 08:27:13;;;;;;;;;;;;;;;16.69;42.91;100774.09;84782;1330;22567;-81
2022/04/11 08:29:21;;;;;;;;;;;;;;;17.00;42.71;100776.52;84785;1327;22565;-81
2022/04/11 08:31:32;;;;;;;;;;;;;;;17.74;40.48;100780.23;84838;1327;22571;-77
2022/04/11 08:33:42;;;;;;;;;;;;;;;18.48;40.30;100772.25;84786;1327;25425;-82
2022/04/11 08:35:53;;;;;;;;;;;;;;;19.02;38.95;100771.20;84772;1330;22850;-78
2022/04/11 08:38:01;;;;;;;;;;;;;;;19.67;37.82;100767.30;84719;1329;22578;-76
2022/04/11 08:40:11;;;;;;;;;;;;;;;20.26;37.08;100768.23;84762;1325;23071;-83
2022/04/11 08:42:23;;;;;;;;;;;;;;;20.92;36.51;100772.34;84824;1330;22591;-76
2022/04/11 08:44:34;;;;;;;;;;;;;;;21.55;34.08;100773.02;84783;1327;24263;-76
2022/04/11 08:46:41;;;;;;;;;;;;;;;21.82;33.02;100777.69;84775;1327;22577;-79
2022/04/11 08:48:51;;;;;;;;;;;;;;;21.07;32.30;100778.06;84782;1327;24167;-77
2022/04/11 08:50:59;;;;;;;;;;;;;;;20.85;32.66;100772.70;84765;1327;22748;-77
2022/04/11 08:53:06;;;;;;;;;;;;;;;21.19;33.01;100774.88;84760;1324;22586;-78
2022/04/11 08:55:14;;;;;;;;;;;;;;;21.35;32.42;100775.29;84775;1327;22565;-79
2022/04/11 08:57:21;;;;;;;;;;;;;;;20.87;31.21;100771.99;84784;1327;22583;-74
2022/04/11 08:59:29;;;;;;;;;;;;;;;19.80;31.65;100774.70;84774;1327;22560;-73
2022/04/11 09:01:39;;;;;;;;;;;;;;;18.68;32.48;100779.40;84788;1327;25555;-74
2022/04/11 09:03:46;;;;;;;;;;;;;;;17.70;33.76;100780.52;84772;1328;22566;-77
2022/04/11 09:06:08;;;;;;;;;;;;;;;17.02;34.74;100779.42;84730;1330;22573;-73
2022/04/11 09:08:17;;;;;;;;;;;;;;;16.66;35.07;100777.25;84760;1327;22579;-78
2022/04/11 09:10:37;;;;;;;;;;;;;;;16.10;35.59;100781.79;84789;1327;22614;-76
2022/04/11 09:12:56;;;;;;;;;;;;;;;15.48;36.36;100786.80;84818;1331;22596;-74
2022/04/11 09:21:25;;;;;;;;;;;;;;;14.47;39.36;100789.86;81527;1325;944140;-79
2022/04/11 09:23:32;;;;;;;;;;;;;;;14.90;39.55;100785.17;84356;1336;23936;-78
2022/04/11 09:25:41;;;;;;;;;;;;;;;15.01;38.76;100788.15;84318;1339;22609;-77
2022/04/11 09:28:07;;;;;;;;;;;;;;;14.96;38.36;100785.57;84332;1338;22710;-76
2022/04/11 09:30:27;;;;;;;;;;;;;;;15.58;39.07;100784.50;84361;1336;22572;-77
2022/04/11 09:32:34;;;;;;;;;;;;;;;16.34;37.70;100776.96;84406;1335;23909;-74
2022/04/11 09:34:42;;;;;;;;;;;;;;;16.54;35.67;100774.05;84406;1335;24264;-79
2022/04/11 09:36:50;;;;;;;;;;;;;;;16.50;35.98;100775.89;84372;1335;22601;-77
2022/04/11 09:39:02;;;;;;;;;;;;;;;16.65;36.18;100775.52;84402;1335;22593;-79
2022/04/11 09:41:15;;;;;;;;;;;;;;;16.71;36.06;100776.60;84358;1336;25642;-81
2022/04/11 09:43:39;;;;;;;;;;;;;;;16.62;35.05;100774.52;84392;1337;24072;-77
2022/04/11 09:46:11;;;;;;;;;;;;;;;16.50;35.67;100774.29;84322;1339;22865;-74
2022/04/11 09:48:28;;;;;;;;;;;;;;;16.41;35.54;100780.75;84326;1339;24246;-78
2022/04/11 09:51:24;;;;;;;;;;;;;;;15.86;35.48;100782.55;84393;1336;22712;-78
2022/04/11 09:54:19;;;;;;;;;;;;;;;;;;;;;
2022/04/11 10:11:13;;;;;;;;;;;;;;;15.56;37.74;100765.98;82015;1368;557638;-76
2022/04/11 10:14:34;;;;;;;;;;;;;;;;;;;;;
2022/04/11 10:17:23;;;;;;;;;;;;;;;15.99;37.67;100757.91;84328;1341;22685;-79
2022/04/11 10:23:34;;;;;;;;;;;;;;;15.56;36.08;100759.82;84232;1335;22577;-80
2022/04/11 10:26:43;;;;;;;;;;;;;;;15.08;36.52;100766.32;84479;1330;22581;-80
2022/04/11 10:29:01;;;;;;;;;;;;;;;14.54;37.06;100770.75;84372;1339;22664;-77
2022/04/11 10:31:46;;;;;;;;;;;;;;;14.13;37.34;100777.05;84504;1336;22599;-74
2022/04/11 10:34:18;;;;;;;;;;;;;;;13.47;37.81;100784.58;84525;1333;22633;-77
2022/04/11 10:36:44;;;;;;;;;;;;;;;12.79;38.41;100783.70;84609;1318;22677;-75
2022/04/11 10:39:33;;;;;;;;;;;;;;;12.23;39.66;100789.23;84388;1335;22576;-76
2022/04/11 10:42:32;;;;;;;;;;;;;;;11.69;41.53;100793.48;84320;1333;22827;-83
2022/04/11 10:45:36;;;;;;;;;;;;;;;11.20;43.94;100799.19;84375;1339;24252;-83
2022/04/11 10:47:50;;;;;;;;;;;;;;;10.80;46.08;100803.48;84334;1339;23948;-84
2022/04/11 10:50:26;;;;;;;;;;;;;;;10.51;46.69;100804.92;84381;1339;22592;-82
2022/04/11 10:52:36;;;;;;;;;;;;;;;10.32;47.09;100807.41;84413;1338;24257;-84
2022/04/11 10:54:49;;;;;;;;;;;;;;;10.28;48.52;100809.60;84420;1335;22581;-82
2022/04/11 11:00:42;;;;;;;;;;;;;;;10.19;47.30;100800.27;84400;1338;22594;-75
2022/04/11 11:03:06;;;;;;;;;;;;;;;10.24;47.29;100800.85;84383;1338;22609;-77
2022/04/11 11:05:24;;;;;;;;;;;;;;;10.25;46.06;100801.52;84265;1337;22619;-82
2022/04/11 11:07:30;;;;;;;;;;;;;;;10.29;45.64;100798.59;84334;1337;22581;-76
2022/04/11 11:09:41;;;;;;;;;;;;;;;10.32;45.19;100795.92;84380;1335;25383;-77
2022/04/11 11:11:48;;;;;;;;;;;;;;;10.41;45.31;100799.66;84310;1338;25457;-76
2022/04/11 11:13:56;;;;;;;;;;;;;;;10.52;44.93;100791.63;84258;1340;22705;-76
2022/04/11 11:16:01;;;;;;;;;;;;;;;10.68;45.07;100793.56;84299;1338;24905;-81
2022/04/11 11:18:07;;;;;;;;;;;;;;;10.81;44.95;100792.98;84298;1338;23984;-79
2022/04/11 11:20:15;;;;;;;;;;;;;;;10.85;45.06;100789.70;84319;1338;22622;-80
2022/04/11 11:22:21;;;;;;;;;;;;;;;10.98;45.39;100788.41;84317;1337;25368;-81
2022/04/11 11:24:37;;;;;;;;;;;;;;;11.07;45.40;100790.55;84321;1338;22606;-82
2022/04/11 11:26:45;;;;;;;;;;;;;;;11.11;45.35;100787.46;84333;1339;22586;-83
2022/04/11 11:28:51;;;;;;;;;;;;;;;11.13;45.14;100789.31;84271;1338;24020;-84
2022/04/11 11:34:38;;;;;;;;;;;;;;;11.09;45.31;100785.77;83613;1346;22611;-83
2022/04/11 11:36:44;;;;;;;;;;;;;;;11.19;44.91;100778.27;83896;1341;22587;-81
2022/04/11 11:38:49;;;;;;;;;;;;;;;11.20;44.52;100775.45;84047;1344;24223;-82
2022/04/11 11:40:57;;;;;;;;;;;;;;;11.21;44.60;100776.14;84041;1340;22586;-83
2022/04/11 11:43:02;;;;;;;;;;;;;;;11.20;44.93;100775.98;84036;1341;23271;-82
2022/04/11 11:45:09;;;;;;;;;;;;;;;11.23;44.92;100772.23;84051;1343;24260;-83
2022/04/11 11:47:17;;;;;;;;;;;;;;;11.30;44.61;100764.98;84028;1341;22839;-81
2022/04/11 11:49:25;;;;;;;;;;;;;;;11.40;44.05;100761.30;84062;1344;24427;-83
2022/04/11 11:51:30;;;;;;;;;;;;;;;11.48;44.35;100760.86;83937;1343;24355;-77